createdAt,value
2022-09-24T00:01:26.174Z,57.40
2022-09-24T00:04:05.177Z,56.84
2022-09-24T00:06:36.497Z,57.18
2022-09-24T00:09:03.874Z,57.02
2022-09-24T00:11:31.251Z,56.61
2022-09-24T00:13:58.791Z,57.36
2022-09-24T00:16:28.792Z,57.40
2022-09-24T00:18:56.025Z,57.30
2022-09-24T00:21:28.659Z,57.34
2022-09-24T00:23:58.706Z,57.64
2022-09-24T00:26:45.226Z,57.46
2022-09-24T00:29:14.355Z,57.17
2022-09-24T00:31:41.598Z,57.59
2022-09-24T00:34:08.506Z,57.66
2022-09-24T00:36:35.378Z,57.77
2022-09-24T00:39:02.172Z,57.88
2022-09-24T00:41:31.813Z,58.10
2022-09-24T00:43:59.506Z,59.47
2022-09-24T00:46:42.610Z,59.42
2022-09-24T00:49:14.710Z,59.51
2022-09-24T00:51:44.161Z,59.45
2022-09-24T00:54:19.652Z,59.26
2022-09-24T00:56:50.079Z,59.55
2022-09-24T00:59:19.528Z,59.31
2022-09-24T01:01:48.242Z,58.87
2022-09-24T01:04:17.542Z,58.89
2022-09-24T01:06:44.513Z,59.09
2022-09-24T01:09:11.250Z,59.08
2022-09-24T01:12:06.380Z,59.55
2022-09-24T01:14:58.319Z,59.44
2022-09-24T01:17:39.201Z,60.16
2022-09-24T01:20:30.460Z,59.77
2022-09-24T01:23:13.809Z,59.06
2022-09-24T01:26:19.807Z,59.24
2022-09-24T01:29:08.339Z,58.73
2022-09-24T01:31:46.889Z,58.27
2022-09-24T01:34:20.093Z,58.27
2022-09-24T01:36:48.149Z,58.81
2022-09-24T01:39:15.032Z,58.72
2022-09-24T01:41:43.335Z,58.22
2022-09-24T01:44:11.885Z,58.12
2022-09-24T01:46:40.803Z,58.20
2022-09-24T01:49:08.613Z,58.61
2022-09-24T01:51:58.717Z,58.62
2022-09-24T01:54:29.438Z,59.12
2022-09-24T01:57:27.689Z,58.97
2022-09-24T02:00:02.481Z,59.75
2022-09-24T02:02:49.161Z,59.76
2022-09-24T02:05:38.798Z,60.18
2022-09-24T02:08:18.748Z,59.79
2022-09-24T02:11:01.474Z,59.75
2022-09-24T02:13:39.525Z,59.55
2022-09-24T02:16:09.490Z,59.67
2022-09-24T02:18:40.845Z,59.18
2022-09-24T02:21:11.235Z,59.42
2022-09-24T02:23:43.117Z,59.47
2022-09-24T02:26:10.681Z,59.73
2022-09-24T02:28:37.506Z,59.89
2022-09-24T02:31:09.611Z,60.21
2022-09-24T02:34:00.590Z,59.99
2022-09-24T02:36:29.530Z,60.24
2022-09-24T02:38:56.432Z,60.68
2022-09-24T02:41:24.943Z,60.59
2022-09-24T02:43:52.094Z,60.38
2022-09-24T02:46:19.251Z,60.26
2022-09-24T02:48:46.003Z,60.34
2022-09-24T02:51:12.744Z,60.54
2022-09-24T02:53:39.474Z,59.62
2022-09-24T02:56:06.460Z,59.47
2022-09-24T02:58:33.510Z,59.79
2022-09-24T03:01:00.355Z,59.08
2022-09-24T03:03:27.063Z,58.76
2022-09-24T03:05:54.979Z,58.64
2022-09-24T03:08:24.187Z,58.60
2022-09-24T03:10:51.352Z,58.99
2022-09-24T03:13:18.956Z,59.46
2022-09-24T03:15:46.425Z,59.53
2022-09-24T03:18:14.311Z,59.48
2022-09-24T03:20:41.345Z,59.76
2022-09-24T03:23:08.318Z,59.77
2022-09-24T03:25:35.154Z,60.10
2022-09-24T03:28:02.259Z,60.00
2022-09-24T03:30:47.416Z,59.91
2022-09-24T03:33:14.077Z,59.95
2022-09-24T03:35:42.437Z,59.94
2022-09-24T03:38:09.142Z,59.78
2022-09-24T03:40:35.895Z,59.81
2022-09-24T03:43:02.667Z,60.20
2022-09-24T03:45:32.810Z,60.36
2022-09-24T03:47:59.702Z,60.05
2022-09-24T03:50:26.387Z,60.10
2022-09-24T03:52:53.105Z,60.03
2022-09-24T03:55:19.811Z,59.95
2022-09-24T03:57:46.685Z,59.94
2022-09-24T04:00:14.126Z,59.96
2022-09-24T04:02:41.119Z,59.84
2022-09-24T04:05:08.613Z,59.84
2022-09-24T04:07:35.367Z,59.89
2022-09-24T04:10:02.385Z,60.24
2022-09-24T04:12:29.636Z,60.72
2022-09-24T04:14:56.441Z,61.00
2022-09-24T04:17:23.123Z,60.45
2022-09-24T04:19:50.959Z,60.47
2022-09-24T04:22:17.626Z,60.97
2022-09-24T04:24:44.625Z,60.73
2022-09-24T04:27:11.705Z,60.69
2022-09-24T04:29:39.740Z,61.12
2022-09-24T04:32:06.427Z,61.28
2022-09-24T04:34:33.430Z,61.21
2022-09-24T04:37:00.709Z,61.10
2022-09-24T04:39:28.234Z,61.05
2022-09-24T04:41:54.982Z,61.15
2022-09-24T04:44:25.709Z,61.03
2022-09-24T04:47:01.047Z,61.04
2022-09-24T04:49:29.584Z,60.77
2022-09-24T04:51:58.155Z,60.95
2022-09-24T04:54:25.522Z,60.95
2022-09-24T04:56:52.210Z,60.81
2022-09-24T04:59:18.894Z,61.02
2022-09-24T05:01:46.915Z,60.46
2022-09-24T05:04:13.893Z,60.68
2022-09-24T05:06:41.574Z,60.80
2022-09-24T05:09:12.466Z,60.83
2022-09-24T05:11:40.922Z,60.38
2022-09-24T05:14:09.032Z,60.22
2022-09-24T05:16:35.745Z,60.49
2022-09-24T05:19:04.939Z,60.28
2022-09-24T05:21:32.444Z,60.06
2022-09-24T05:24:00.989Z,60.44
2022-09-24T05:26:47.534Z,60.22
2022-09-24T05:29:14.172Z,60.03
2022-09-24T05:31:46.054Z,60.17
2022-09-24T05:34:14.252Z,60.26
2022-09-24T05:36:43.596Z,60.32
2022-09-24T05:39:11.937Z,60.57
2022-09-24T05:41:39.794Z,60.66
2022-09-24T05:44:07.290Z,59.82
2022-09-24T05:46:38.710Z,59.82
2022-09-24T05:49:05.528Z,59.78
2022-09-24T05:51:32.601Z,60.16
2022-09-24T05:53:59.264Z,60.06
2022-09-24T05:56:26.034Z,59.93
2022-09-24T05:58:52.758Z,59.95
2022-09-24T06:01:19.467Z,59.34
2022-09-24T06:03:46.221Z,59.53
2022-09-24T06:06:14.419Z,59.87
2022-09-24T06:08:41.427Z,60.13
2022-09-24T06:11:15.240Z,59.63
2022-09-24T06:13:43.402Z,59.60
2022-09-24T06:16:14.141Z,59.93
2022-09-24T06:18:44.209Z,60.04
2022-09-24T06:21:13.806Z,59.91
2022-09-24T06:23:42.485Z,60.21
2022-09-24T06:26:14.824Z,59.57
2022-09-24T06:28:42.744Z,59.39
2022-09-24T06:31:14.383Z,59.49
2022-09-24T06:33:41.150Z,59.25
2022-09-24T06:36:09.117Z,59.19
2022-09-24T06:38:38.170Z,59.55
2022-09-24T06:41:05.713Z,58.94
2022-09-24T06:43:34.002Z,57.84
2022-09-24T06:46:07.353Z,57.81
2022-09-24T06:48:34.196Z,57.76
2022-09-24T06:51:00.882Z,58.03
2022-09-24T06:53:27.793Z,57.79
2022-09-24T06:56:00.798Z,57.47
2022-09-24T06:58:29.992Z,57.32
2022-09-24T07:01:03.968Z,57.21
2022-09-24T07:03:33.455Z,57.60
2022-09-24T07:06:03.780Z,57.03
2022-09-24T07:08:31.396Z,57.06
2022-09-24T07:10:58.943Z,57.00
2022-09-24T07:13:25.689Z,56.92
2022-09-24T07:15:52.903Z,56.60
2022-09-24T07:18:20.467Z,56.13
2022-09-24T07:20:56.807Z,55.47
2022-09-24T07:23:24.087Z,55.21
2022-09-24T07:25:51.142Z,55.13
2022-09-24T07:28:19.594Z,54.62
2022-09-24T07:30:46.359Z,54.42
2022-09-24T07:33:17.514Z,54.21
2022-09-24T07:35:45.579Z,54.21
2022-09-24T07:38:12.566Z,53.67
2022-09-24T07:40:39.425Z,52.10
2022-09-24T07:43:16.439Z,51.91
2022-09-24T07:45:45.179Z,52.06
2022-09-24T07:48:13.447Z,50.84
2022-09-24T07:50:41.544Z,51.11
2022-09-24T07:53:13.247Z,51.50
2022-09-24T07:55:41.059Z,52.79
2022-09-24T07:58:15.084Z,53.44
2022-09-24T08:00:43.438Z,52.51
2022-09-24T08:03:10.835Z,53.91
2022-09-24T08:05:45.080Z,53.03
2022-09-24T08:08:12.466Z,53.82
2022-09-24T08:10:42.497Z,53.16
2022-09-24T08:13:09.196Z,51.92
2022-09-24T08:15:37.965Z,51.12
2022-09-24T08:18:05.775Z,49.73
2022-09-24T08:20:34.324Z,50.48
2022-09-24T08:23:02.298Z,50.67
2022-09-24T08:25:29.224Z,50.68
2022-09-24T08:28:04.439Z,51.45
2022-09-24T08:30:32.332Z,51.00
2022-09-24T08:32:59.066Z,51.37
2022-09-24T08:35:25.938Z,52.05
2022-09-24T08:37:55.758Z,53.04
2022-09-24T08:40:27.060Z,52.33
2022-09-24T08:42:56.754Z,52.76
2022-09-24T08:45:43.595Z,52.02
2022-09-24T08:48:21.305Z,51.53
2022-09-24T08:50:58.171Z,51.86
2022-09-24T08:53:50.606Z,50.59
2022-09-24T08:56:26.807Z,51.62
2022-09-24T08:59:00.589Z,50.66
2022-09-24T09:01:38.738Z,49.95
2022-09-24T09:04:17.554Z,49.71
2022-09-24T09:07:12.140Z,49.52
2022-09-24T09:09:44.715Z,49.55
2022-09-24T09:12:21.138Z,49.70
2022-09-24T09:14:55.817Z,49.77
2022-09-24T09:17:34.710Z,49.26
2022-09-24T09:20:07.779Z,48.91
2022-09-24T09:22:41.130Z,49.54
2022-09-24T09:25:23.660Z,49.45
2022-09-24T09:28:14.723Z,49.16
2022-09-24T09:30:53.579Z,50.45
2022-09-24T09:33:36.127Z,50.36
2022-09-24T09:36:02.788Z,50.10
2022-09-24T09:38:59.588Z,50.75
2022-09-24T09:42:16.184Z,50.84
2022-09-24T09:44:44.012Z,51.04
2022-09-24T09:47:24.852Z,51.17
2022-09-24T09:49:58.366Z,50.97
2022-09-24T09:52:42.798Z,51.12
2022-09-24T09:55:59.513Z,51.21
2022-09-24T09:59:16.556Z,51.72
2022-09-24T10:01:46.671Z,51.44
2022-09-24T10:04:41.315Z,51.22
2022-09-24T10:07:12.383Z,51.70
2022-09-24T10:09:41.998Z,50.53
2022-09-24T10:12:16.395Z,50.69
2022-09-24T10:14:43.628Z,50.60
2022-09-24T10:17:19.581Z,49.95
2022-09-24T10:19:47.789Z,49.37
2022-09-24T10:22:22.130Z,48.82
2022-09-24T10:24:50.885Z,48.90
2022-09-24T10:27:28.973Z,48.75
2022-09-24T10:30:30.085Z,48.30
2022-09-24T10:32:58.959Z,48.61
2022-09-24T10:35:35.590Z,48.59
2022-09-24T10:38:15.974Z,48.17
2022-09-24T10:40:42.877Z,47.99
2022-09-24T10:43:21.207Z,48.49
2022-09-24T10:46:13.076Z,48.07
2022-09-24T10:49:06.700Z,46.86
2022-09-24T10:51:47.721Z,45.81
2022-09-24T10:54:38.200Z,43.50
2022-09-24T10:57:34.936Z,43.01
2022-09-24T11:00:07.939Z,42.24
2022-09-24T11:02:45.943Z,41.70
2022-09-24T11:05:20.877Z,40.28
2022-09-24T11:08:06.632Z,40.55
2022-09-24T11:10:37.042Z,38.54
2022-09-24T11:13:26.856Z,37.03
2022-09-24T11:16:09.987Z,37.22
2022-09-24T11:18:55.550Z,36.75
2022-09-24T11:21:57.646Z,37.10
2022-09-24T11:24:44.897Z,38.38
2022-09-24T11:27:42.497Z,40.06
2022-09-24T11:30:21.746Z,40.08
2022-09-24T11:33:06.979Z,40.23
2022-09-24T11:35:56.561Z,39.49
2022-09-24T11:38:36.932Z,38.39
2022-09-24T11:41:06.678Z,35.85
2022-09-24T11:43:43.115Z,34.48
2022-09-24T11:46:48.251Z,34.13
2022-09-24T11:49:59.902Z,34.24
2022-09-24T11:52:41.065Z,34.57
2022-09-24T11:55:26.842Z,35.22
2022-09-24T11:58:31.240Z,36.82
2022-09-24T12:01:17.825Z,36.99
2022-09-24T12:03:47.972Z,38.37
2022-09-24T12:06:20.122Z,37.42
2022-09-24T12:08:57.714Z,37.39
2022-09-24T12:11:31.894Z,36.43
2022-09-24T12:14:11.525Z,36.32
2022-09-24T12:16:44.577Z,36.11
2022-09-24T12:19:26.743Z,35.69
2022-09-24T12:21:58.116Z,35.38
2022-09-24T12:24:43.849Z,34.35
2022-09-24T12:27:19.897Z,34.15
2022-09-24T12:30:16.934Z,32.94
2022-09-24T12:33:13.579Z,32.29
2022-09-24T12:35:47.280Z,32.26
2022-09-24T12:38:36.768Z,31.39
2022-09-24T12:41:37.947Z,32.04
2022-09-24T12:44:10.696Z,33.17
2022-09-24T12:47:17.016Z,33.09
2022-09-24T12:49:51.579Z,33.15
2022-09-24T12:52:25.926Z,33.49
2022-09-24T12:55:02.237Z,33.99
2022-09-24T12:57:40.023Z,34.12
2022-09-24T13:00:34.773Z,35.07
2022-09-24T13:03:03.256Z,34.87
2022-09-24T13:05:46.259Z,35.64
2022-09-24T13:08:16.933Z,35.22
2022-09-24T13:11:29.941Z,35.90
2022-09-24T13:14:21.866Z,34.55
2022-09-24T13:16:56.808Z,35.05
2022-09-24T13:19:40.906Z,35.88
2022-09-24T13:22:38.014Z,36.61
2022-09-24T13:25:27.992Z,35.21
2022-09-24T13:28:05.891Z,35.70
2022-09-24T13:30:38.576Z,36.24
2022-09-24T13:33:11.638Z,37.46
2022-09-24T13:35:50.094Z,38.04
2022-09-24T13:38:21.518Z,37.74
2022-09-24T13:40:56.896Z,37.96
2022-09-24T13:43:39.970Z,38.00
2022-09-24T13:46:15.379Z,37.70
2022-09-24T13:48:49.387Z,38.35
2022-09-24T13:51:18.775Z,39.80
2022-09-24T13:54:12.164Z,39.47
2022-09-24T13:56:39.146Z,39.22
2022-09-24T13:59:11.847Z,39.59
2022-09-24T14:01:43.723Z,39.40
2022-09-24T14:04:33.885Z,40.22
2022-09-24T14:07:05.754Z,40.16
2022-09-24T14:09:36.179Z,40.71
2022-09-24T14:12:15.148Z,41.17
2022-09-24T14:14:50.933Z,43.10
2022-09-24T14:17:17.684Z,44.32
2022-09-24T14:19:46.542Z,44.16
2022-09-24T14:22:34.047Z,43.99
2022-09-24T14:25:07.113Z,43.20
2022-09-24T14:27:41.130Z,43.15
2022-09-24T14:30:18.574Z,43.42
2022-09-24T14:32:46.284Z,44.29
2022-09-24T14:35:29.107Z,44.28
2022-09-24T14:38:11.696Z,43.92
2022-09-24T14:40:49.602Z,43.93
2022-09-24T14:43:44.726Z,45.25
2022-09-24T14:46:21.892Z,44.73
2022-09-24T14:48:48.829Z,44.02
2022-09-24T14:51:34.466Z,45.15
2022-09-24T14:54:39.941Z,45.00
2022-09-24T14:57:18.765Z,45.11
2022-09-24T14:59:46.814Z,46.17
2022-09-24T15:02:27.786Z,45.90
2022-09-24T15:05:07.380Z,46.14
2022-09-24T15:07:36.013Z,45.58
2022-09-24T15:10:05.996Z,46.58
2022-09-24T15:12:37.616Z,46.39
2022-09-24T15:15:28.730Z,46.72
2022-09-24T15:17:55.425Z,47.69
2022-09-24T15:20:23.124Z,47.30
2022-09-24T15:22:51.853Z,47.08
2022-09-24T15:25:21.323Z,46.63
2022-09-24T15:27:54.504Z,47.09
2022-09-24T15:30:22.231Z,48.35
2022-09-24T15:32:52.397Z,48.59
2022-09-24T15:35:19.972Z,48.06
2022-09-24T15:37:48.643Z,48.73
2022-09-24T15:40:23.024Z,48.66
2022-09-24T15:42:51.778Z,49.21
2022-09-24T15:45:23.861Z,48.91
2022-09-24T15:47:53.448Z,48.80
2022-09-24T15:50:22.592Z,49.77
2022-09-24T15:52:57.176Z,51.11
2022-09-24T15:55:25.528Z,50.55
2022-09-24T15:57:52.344Z,50.71
2022-09-24T16:00:23.058Z,50.95
2022-09-24T16:02:55.132Z,50.29
2022-09-24T16:05:23.310Z,51.31
2022-09-24T16:07:50.276Z,52.04
2022-09-24T16:10:18.342Z,51.21
2022-09-24T16:12:46.756Z,51.27
2022-09-24T16:15:19.567Z,51.47
2022-09-24T16:17:50.270Z,52.28
2022-09-24T16:20:28.023Z,53.24
2022-09-24T16:22:57.379Z,52.91
2022-09-24T16:25:25.952Z,53.30
2022-09-24T16:27:52.671Z,53.77
2022-09-24T16:30:21.496Z,53.37
2022-09-24T16:32:48.222Z,53.21
2022-09-24T16:35:15.214Z,53.40
2022-09-24T16:37:42.723Z,55.59
2022-09-24T16:40:11.055Z,55.37
2022-09-24T16:42:39.220Z,55.33
2022-09-24T16:45:10.260Z,55.21
2022-09-24T16:47:37.968Z,55.50
2022-09-24T16:50:05.289Z,55.79
2022-09-24T16:52:32.061Z,56.26
2022-09-24T16:55:01.156Z,57.60
2022-09-24T16:57:30.106Z,56.89
2022-09-24T16:59:57.663Z,56.85
2022-09-24T17:02:24.923Z,56.29
2022-09-24T17:05:01.074Z,55.44
2022-09-24T17:07:32.483Z,55.28
2022-09-24T17:10:18.347Z,55.56
2022-09-24T17:12:48.424Z,54.94
2022-09-24T17:15:19.349Z,55.21
2022-09-24T17:17:50.133Z,55.32
2022-09-24T17:20:21.061Z,57.29
2022-09-24T17:22:51.670Z,57.69
2022-09-24T17:25:21.366Z,57.09
2022-09-24T17:27:48.145Z,55.95
2022-09-24T17:30:16.762Z,56.19
2022-09-24T17:32:45.061Z,56.01
2022-09-24T17:35:14.729Z,56.82
2022-09-24T17:37:42.365Z,56.95
2022-09-24T17:40:10.202Z,56.90
2022-09-24T17:42:37.082Z,57.03
2022-09-24T17:45:06.751Z,57.81
2022-09-24T17:47:53.707Z,58.61
2022-09-24T17:50:20.366Z,58.45
2022-09-24T17:52:50.585Z,58.63
2022-09-24T17:55:17.519Z,58.59
2022-09-24T17:57:44.931Z,58.60
2022-09-24T18:00:13.994Z,59.87
2022-09-24T18:02:40.756Z,60.56
2022-09-24T18:05:10.620Z,60.31
2022-09-24T18:07:37.334Z,60.50
2022-09-24T18:10:04.445Z,60.97
2022-09-24T18:12:31.139Z,61.29
2022-09-24T18:14:57.818Z,60.91
2022-09-24T18:17:24.518Z,61.44
2022-09-24T18:19:51.200Z,61.47
2022-09-24T18:22:18.941Z,61.27
2022-09-24T18:24:47.527Z,60.91
2022-09-24T18:27:16.024Z,60.92
2022-09-24T18:29:44.583Z,61.22
2022-09-24T18:32:11.526Z,61.12
2022-09-24T18:34:39.029Z,61.93
2022-09-24T18:37:07.515Z,62.30
2022-09-24T18:39:34.280Z,62.53
2022-09-24T18:42:00.997Z,63.29
2022-09-24T18:44:28.788Z,62.81
2022-09-24T18:46:55.447Z,62.88
2022-09-24T18:49:24.927Z,63.13
2022-09-24T18:51:52.416Z,62.95
2022-09-24T18:54:19.469Z,62.96
2022-09-24T18:56:48.051Z,63.15
2022-09-24T18:59:20.724Z,63.21
2022-09-24T19:01:49.245Z,62.89
2022-09-24T19:04:17.620Z,63.04
2022-09-24T19:06:46.139Z,63.23
2022-09-24T19:09:17.618Z,63.24
2022-09-24T19:11:45.498Z,63.13
2022-09-24T19:14:18.639Z,63.39
2022-09-24T19:16:47.552Z,63.18
2022-09-24T19:19:14.700Z,62.92
2022-09-24T19:21:42.126Z,63.18
2022-09-24T19:24:09.846Z,63.14
2022-09-24T19:26:37.531Z,63.73
2022-09-24T19:29:04.997Z,63.47
2022-09-24T19:31:36.505Z,63.70
2022-09-24T19:34:05.715Z,63.29
2022-09-24T19:36:45.486Z,63.60
2022-09-24T19:39:15.328Z,63.26
2022-09-24T19:41:43.815Z,63.04
2022-09-24T19:44:12.125Z,62.81
2022-09-24T19:46:39.591Z,63.23
2022-09-24T19:49:07.034Z,63.43
2022-09-24T19:51:35.015Z,63.50
2022-09-24T19:54:06.869Z,63.28
2022-09-24T19:56:34.556Z,64.07
2022-09-24T19:59:03.133Z,63.63
2022-09-24T20:01:33.871Z,63.55
2022-09-24T20:04:04.321Z,63.86
2022-09-24T20:06:34.231Z,63.89
2022-09-24T20:09:01.413Z,63.76
2022-09-24T20:11:33.142Z,63.87
2022-09-24T20:14:01.165Z,64.10
2022-09-24T20:16:34.969Z,63.82
2022-09-24T20:19:04.719Z,64.12
2022-09-24T20:21:36.041Z,64.03
2022-09-24T20:24:07.607Z,64.40
2022-09-24T20:26:53.837Z,64.47
2022-09-24T20:29:21.960Z,64.29
2022-09-24T20:31:55.791Z,64.86
2022-09-24T20:34:29.084Z,64.93
2022-09-24T20:37:01.835Z,64.32
2022-09-24T20:39:31.719Z,64.28
2022-09-24T20:42:05.980Z,64.27
2022-09-24T20:44:34.247Z,64.34
2022-09-24T20:47:01.754Z,64.23
2022-09-24T20:49:29.939Z,64.47
2022-09-24T20:52:00.203Z,64.43
2022-09-24T20:54:30.025Z,64.50
2022-09-24T20:56:57.568Z,64.65
2022-09-24T20:59:27.745Z,64.59
2022-09-24T21:01:58.243Z,64.69
2022-09-24T21:04:27.589Z,64.43
2022-09-24T21:06:55.155Z,64.25
2022-09-24T21:09:22.776Z,64.28
2022-09-24T21:11:50.313Z,64.59
2022-09-24T21:14:19.973Z,64.38
2022-09-24T21:16:47.629Z,64.73
2022-09-24T21:19:15.788Z,64.59
2022-09-24T21:21:42.603Z,64.89
2022-09-24T21:24:15.399Z,64.95
2022-09-24T21:26:42.578Z,65.00
2022-09-24T21:29:18.842Z,64.99
2022-09-24T21:31:49.883Z,65.26
2022-09-24T21:34:25.061Z,65.11
2022-09-24T21:36:55.706Z,65.11
2022-09-24T21:39:26.773Z,65.26
2022-09-24T21:42:00.705Z,65.25
2022-09-24T21:44:33.829Z,65.24
2022-09-24T21:47:01.281Z,65.30
2022-09-24T21:49:30.675Z,65.13
2022-09-24T21:51:59.090Z,65.07
2022-09-24T21:54:26.109Z,64.81
2022-09-24T21:56:59.547Z,64.77
2022-09-24T21:59:45.013Z,64.91
2022-09-24T22:02:14.335Z,65.22
2022-09-24T22:04:42.951Z,65.26
2022-09-24T22:07:10.240Z,65.20
2022-09-24T22:09:37.073Z,65.33
2022-09-24T22:12:04.637Z,65.56
2022-09-24T22:14:34.486Z,65.40
2022-09-24T22:17:05.851Z,65.71
2022-09-24T22:19:32.883Z,65.91
2022-09-24T22:21:59.592Z,66.02
2022-09-24T22:24:26.532Z,66.29
2022-09-24T22:26:55.232Z,65.98
2022-09-24T22:29:24.554Z,65.92
2022-09-24T22:31:51.255Z,66.00
2022-09-24T22:34:36.445Z,65.55
2022-09-24T22:37:06.840Z,65.83
2022-09-24T22:39:34.069Z,65.95
2022-09-24T22:42:01.537Z,65.59
2022-09-24T22:44:29.210Z,66.05
2022-09-24T22:46:56.297Z,66.32
2022-09-24T22:49:27.796Z,66.47
2022-09-24T22:51:54.639Z,66.15
2022-09-24T22:54:21.384Z,66.32
2022-09-24T22:56:49.193Z,66.14
2022-09-24T22:59:18.099Z,65.58
2022-09-24T23:01:46.168Z,65.93
2022-09-24T23:04:14.923Z,65.48
2022-09-24T23:06:43.219Z,65.63
2022-09-24T23:09:12.471Z,65.77
2022-09-24T23:11:39.319Z,65.79
2022-09-24T23:14:12.660Z,66.08
2022-09-24T23:16:39.539Z,65.83
2022-09-24T23:19:11.153Z,65.88
2022-09-24T23:21:39.830Z,65.82
2022-09-24T23:24:12.382Z,66.26
2022-09-24T23:26:39.103Z,66.03
2022-09-24T23:29:06.753Z,66.31
2022-09-24T23:31:37.031Z,66.36
2022-09-24T23:34:07.581Z,66.57
2022-09-24T23:36:35.542Z,66.66
2022-09-24T23:39:04.072Z,66.83
2022-09-24T23:41:31.690Z,66.91
2022-09-24T23:44:00.246Z,66.73
2022-09-24T23:46:27.978Z,66.47
2022-09-24T23:48:56.958Z,65.96
2022-09-24T23:51:25.413Z,66.17
2022-09-24T23:53:52.771Z,65.97
2022-09-24T23:56:19.900Z,65.94
2022-09-24T23:58:47.258Z,66.02
